createdAt,value
2023-04-23T00:00:12.137Z,15.04
2023-04-23T00:02:44.478Z,15.10
2023-04-23T00:05:14.008Z,15.03
2023-04-23T00:07:43.045Z,15.04
2023-04-23T00:10:11.908Z,15.04
2023-04-23T00:12:42.645Z,15.02
2023-04-23T00:15:12.042Z,15.05
2023-04-23T00:17:40.882Z,15.07
2023-04-23T00:20:10.495Z,15.11
2023-04-23T00:22:38.380Z,15.04
2023-04-23T00:25:06.838Z,15.02
2023-04-23T00:27:34.810Z,15.07
2023-04-23T00:30:04.408Z,15.04
2023-04-23T00:32:34.546Z,15.04
2023-04-23T00:35:02.423Z,15.09
2023-04-23T00:37:31.572Z,15.00
2023-04-23T00:39:59.576Z,15.05
2023-04-23T00:42:28.140Z,14.97
2023-04-23T00:44:56.986Z,15.07
2023-04-23T00:47:26.475Z,15.05
2023-04-23T00:49:55.593Z,15.02
2023-04-23T00:52:23.503Z,15.07
2023-04-23T00:54:52.038Z,14.93
2023-04-23T00:57:20.034Z,14.90
2023-04-23T00:59:48.103Z,14.98
2023-04-23T01:02:16.700Z,14.99
2023-04-23T01:04:46.381Z,14.98
2023-04-23T01:07:14.157Z,14.99
2023-04-23T01:09:44.787Z,14.98
2023-04-23T01:12:12.925Z,14.93
2023-04-23T01:14:41.595Z,14.91
2023-04-23T01:17:09.891Z,14.92
2023-04-23T01:19:38.296Z,14.91
2023-04-23T01:22:11.129Z,14.85
2023-04-23T01:24:39.507Z,14.89
2023-04-23T01:27:07.568Z,14.94
2023-04-23T01:29:35.705Z,14.80
2023-04-23T01:32:04.210Z,14.80
2023-04-23T01:34:32.995Z,14.74
2023-04-23T01:37:01.377Z,14.75
2023-04-23T01:39:30.587Z,14.66
2023-04-23T01:41:58.579Z,14.73
2023-04-23T01:44:26.852Z,14.67
2023-04-23T01:46:54.938Z,14.72
2023-04-23T01:49:22.806Z,14.68
2023-04-23T01:51:50.700Z,14.73
2023-04-23T01:54:18.517Z,14.63
2023-04-23T01:56:47.711Z,14.63
2023-04-23T01:59:15.783Z,14.63
2023-04-23T02:01:45.170Z,14.68
2023-04-23T02:04:16.087Z,14.69
2023-04-23T02:06:46.971Z,14.70
2023-04-23T02:09:15.229Z,14.81
2023-04-23T02:11:43.238Z,14.72
2023-04-23T02:14:12.473Z,14.73
2023-04-23T02:16:41.512Z,14.73
2023-04-23T02:19:09.504Z,14.74
2023-04-23T02:21:37.463Z,14.42
2023-04-23T02:24:06.075Z,13.74
2023-04-23T02:26:33.960Z,13.34
2023-04-23T02:29:01.850Z,13.18
2023-04-23T02:31:31.262Z,13.07
2023-04-23T02:33:59.135Z,12.93
2023-04-23T02:36:28.674Z,12.89
2023-04-23T02:38:56.503Z,13.02
2023-04-23T02:41:24.317Z,12.91
2023-04-23T02:43:52.108Z,12.83
2023-04-23T02:46:19.934Z,12.82
2023-04-23T02:48:49.223Z,12.82
2023-04-23T02:51:18.087Z,12.87
2023-04-23T02:53:46.224Z,13.01
2023-04-23T02:56:14.158Z,13.18
2023-04-23T02:58:42.015Z,13.17
2023-04-23T03:01:09.946Z,13.20
2023-04-23T03:03:38.270Z,13.20
2023-04-23T03:06:08.657Z,13.22
2023-04-23T03:08:36.680Z,13.20
2023-04-23T03:11:04.565Z,13.24
2023-04-23T03:13:32.552Z,13.30
2023-04-23T03:16:00.724Z,13.45
2023-04-23T03:18:28.622Z,13.57
2023-04-23T03:20:57.622Z,13.45
2023-04-23T03:23:27.199Z,13.47
2023-04-23T03:25:55.018Z,13.26
2023-04-23T03:28:22.888Z,12.84
2023-04-23T03:30:50.782Z,12.80
2023-04-23T03:33:18.655Z,12.81
2023-04-23T03:35:46.651Z,12.71
2023-04-23T03:38:18.944Z,12.63
2023-04-23T03:40:48.386Z,12.74
2023-04-23T03:43:16.290Z,12.78
2023-04-23T03:46:02.790Z,12.89
2023-04-23T03:48:33.840Z,12.96
2023-04-23T03:51:05.861Z,13.00
2023-04-23T03:53:38.653Z,13.04
2023-04-23T03:56:30.474Z,13.09
2023-04-23T03:59:17.494Z,13.11
2023-04-23T04:01:48.525Z,13.16
2023-04-23T04:04:16.692Z,13.16
2023-04-23T04:06:44.756Z,13.20
2023-04-23T04:09:12.573Z,13.30
2023-04-23T04:11:42.090Z,13.35
2023-04-23T04:14:10.350Z,13.45
2023-04-23T04:16:38.258Z,13.49
2023-04-23T04:19:06.508Z,13.57
2023-04-23T04:21:34.463Z,13.67
2023-04-23T04:24:02.747Z,13.65
2023-04-23T04:26:32.357Z,13.81
2023-04-23T04:29:02.049Z,13.97
2023-04-23T04:31:31.010Z,14.16
2023-04-23T04:33:59.160Z,14.07
2023-04-23T04:36:27.122Z,14.09
2023-04-23T04:38:56.068Z,14.13
2023-04-23T04:41:25.556Z,13.76
2023-04-23T04:43:53.476Z,13.67
2023-04-23T04:46:22.706Z,13.76
2023-04-23T04:48:52.785Z,13.77
2023-04-23T04:51:20.916Z,13.94
2023-04-23T04:53:48.728Z,13.92
2023-04-23T04:56:16.658Z,13.95
2023-04-23T04:58:44.481Z,14.01
2023-04-23T05:01:13.381Z,13.95
2023-04-23T05:03:42.805Z,14.03
2023-04-23T05:06:10.858Z,14.10
2023-04-23T05:08:38.778Z,14.32
2023-04-23T05:11:06.683Z,14.18
2023-04-23T05:13:34.566Z,14.28
2023-04-23T05:16:02.484Z,14.33
2023-04-23T05:18:30.487Z,14.52
2023-04-23T05:20:59.715Z,14.50
2023-04-23T05:23:27.617Z,14.78
2023-04-23T05:25:56.910Z,14.73
2023-04-23T05:28:24.783Z,14.69
2023-04-23T05:30:53.049Z,14.90
2023-04-23T05:33:20.908Z,14.77
2023-04-23T05:35:48.782Z,14.87
2023-04-23T05:38:18.084Z,14.95
2023-04-23T05:40:45.970Z,14.86
2023-04-23T05:43:13.982Z,14.92
2023-04-23T05:45:42.071Z,15.09
2023-04-23T05:48:09.993Z,15.22
2023-04-23T05:50:37.904Z,15.23
2023-04-23T05:53:07.940Z,15.28
2023-04-23T05:55:37.131Z,15.28
2023-04-23T05:58:05.108Z,15.61
2023-04-23T06:00:35.282Z,15.59
2023-04-23T06:03:03.276Z,15.61
2023-04-23T06:05:31.241Z,15.59
2023-04-23T06:07:59.102Z,15.51
2023-04-23T06:10:26.934Z,15.52
2023-04-23T06:12:56.216Z,15.36
2023-04-23T06:15:26.944Z,15.56
2023-04-23T06:17:54.943Z,15.54
2023-04-23T06:20:23.052Z,15.43
2023-04-23T06:22:50.937Z,15.45
2023-04-23T06:25:18.721Z,15.39
2023-04-23T06:27:46.549Z,15.22
2023-04-23T06:30:22.080Z,15.35
2023-04-23T06:32:51.247Z,15.34
2023-04-23T06:35:19.153Z,15.46
2023-04-23T06:37:46.957Z,15.50
2023-04-23T06:40:15.483Z,15.60
2023-04-23T06:42:43.330Z,15.53
2023-04-23T06:45:17.953Z,15.57
2023-04-23T06:47:49.173Z,15.53
2023-04-23T06:50:17.115Z,15.61
2023-04-23T06:52:45.075Z,15.64
2023-04-23T06:55:13.571Z,15.68
2023-04-23T06:57:41.531Z,15.86
2023-04-23T07:00:11.694Z,16.06
2023-04-23T07:02:42.622Z,16.09
2023-04-23T07:05:12.106Z,15.93
2023-04-23T07:07:40.693Z,15.71
2023-04-23T07:10:10.023Z,15.44
2023-04-23T07:12:38.229Z,15.26
2023-04-23T07:15:07.549Z,14.86
2023-04-23T07:17:36.002Z,14.78
2023-04-23T07:20:06.408Z,14.63
2023-04-23T07:22:35.922Z,14.47
2023-04-23T07:25:05.295Z,14.37
2023-04-23T07:27:33.246Z,14.10
2023-04-23T07:30:01.993Z,13.88
2023-04-23T07:32:30.169Z,13.79
2023-04-23T07:34:58.255Z,13.64
2023-04-23T07:37:26.341Z,13.64
2023-04-23T07:39:55.540Z,13.61
2023-04-23T07:42:23.539Z,13.46
2023-04-23T07:44:51.386Z,13.37
2023-04-23T07:47:19.399Z,13.37
2023-04-23T07:49:47.337Z,13.37
2023-04-23T07:52:15.543Z,13.27
2023-04-23T07:54:43.486Z,13.41
2023-04-23T07:57:12.869Z,13.40
2023-04-23T07:59:41.309Z,13.47
2023-04-23T08:02:09.718Z,13.64
2023-04-23T08:04:37.959Z,13.49
2023-04-23T08:07:05.982Z,13.62
2023-04-23T08:09:33.845Z,13.62
2023-04-23T08:12:02.179Z,13.73
2023-04-23T08:14:31.442Z,13.66
2023-04-23T08:17:00.145Z,13.67
2023-04-23T08:19:31.706Z,13.61
2023-04-23T08:21:59.622Z,13.65
2023-04-23T08:24:27.508Z,13.68
2023-04-23T08:26:55.528Z,13.70
2023-04-23T08:29:23.353Z,13.68
2023-04-23T08:31:52.565Z,13.66
2023-04-23T08:34:21.565Z,13.84
2023-04-23T08:36:49.500Z,13.98
2023-04-23T08:39:17.426Z,13.93
2023-04-23T08:41:46.995Z,14.14
2023-04-23T08:44:18.869Z,14.26
2023-04-23T08:46:50.438Z,14.30
2023-04-23T08:49:20.056Z,14.52
2023-04-23T08:51:50.629Z,14.72
2023-04-23T08:54:23.242Z,14.99
2023-04-23T08:56:52.382Z,15.10
2023-04-23T08:59:23.001Z,15.27
2023-04-23T09:01:51.141Z,15.53
2023-04-23T09:04:20.464Z,15.84
2023-04-23T09:06:50.457Z,16.11
2023-04-23T09:09:18.566Z,15.66
2023-04-23T09:11:46.487Z,15.41
2023-04-23T09:14:15.008Z,15.20
2023-04-23T09:16:42.963Z,15.13
2023-04-23T09:19:12.263Z,15.01
2023-04-23T09:21:41.961Z,14.91
2023-04-23T09:24:12.535Z,14.92
2023-04-23T09:26:46.715Z,14.73
2023-04-23T09:29:18.411Z,14.51
2023-04-23T09:31:47.714Z,14.30
2023-04-23T09:34:18.077Z,14.13
2023-04-23T09:36:50.238Z,14.08
2023-04-23T09:39:19.337Z,13.92
2023-04-23T09:41:47.269Z,13.74
2023-04-23T09:44:19.104Z,13.50
2023-04-23T09:46:46.960Z,13.48
2023-04-23T09:49:16.200Z,13.43
2023-04-23T09:51:46.578Z,13.45
2023-04-23T09:54:16.675Z,13.28
2023-04-23T09:56:44.793Z,13.30
2023-04-23T09:59:35.446Z,13.30
2023-04-23T10:02:05.395Z,13.29
2023-04-23T10:04:33.945Z,13.29
2023-04-23T10:09:36.740Z,13.44
2023-04-23T10:12:05.058Z,13.42
2023-04-23T10:14:33.168Z,13.44
2023-04-23T10:17:02.152Z,13.45
2023-04-23T10:19:30.574Z,13.49
2023-04-23T10:22:17.773Z,13.65
2023-04-23T10:24:55.166Z,13.42
2023-04-23T10:27:33.358Z,13.40
2023-04-23T10:30:09.086Z,13.51
2023-04-23T10:32:38.015Z,13.50
2023-04-23T10:35:07.329Z,13.54
2023-04-23T10:37:35.863Z,13.71
2023-04-23T10:40:11.450Z,14.11
2023-04-23T10:42:40.535Z,14.36
2023-04-23T10:45:23.486Z,14.52
2023-04-23T10:47:54.343Z,15.06
2023-04-23T10:50:26.755Z,15.53
2023-04-23T10:52:56.844Z,15.75
2023-04-23T10:55:27.221Z,15.67
2023-04-23T10:58:05.773Z,15.73
2023-04-23T11:00:45.628Z,15.79
2023-04-23T11:03:33.645Z,15.62
2023-04-23T11:06:04.735Z,15.73
2023-04-23T11:08:33.328Z,15.34
2023-04-23T11:11:03.780Z,15.36
2023-04-23T11:13:31.580Z,15.43
2023-04-23T11:16:16.355Z,15.56
2023-04-23T11:19:02.908Z,15.37
2023-04-23T11:21:57.012Z,15.66
2023-04-23T11:24:24.945Z,15.89
2023-04-23T11:26:54.606Z,15.84
2023-04-23T11:29:23.822Z,15.53
2023-04-23T11:32:01.715Z,15.53
2023-04-23T11:34:31.445Z,15.73
2023-04-23T11:37:00.309Z,16.02
2023-04-23T11:39:28.338Z,16.51
2023-04-23T11:42:02.991Z,16.15
2023-04-23T11:44:31.583Z,16.79
2023-04-23T11:47:01.839Z,17.21
2023-04-23T11:49:29.755Z,17.28
2023-04-23T11:52:00.388Z,17.03
2023-04-23T11:54:29.438Z,16.93
2023-04-23T11:56:59.760Z,17.47
2023-04-23T11:59:27.751Z,17.67
2023-04-23T12:01:57.131Z,18.06
2023-04-23T12:04:26.024Z,18.73
2023-04-23T12:06:54.950Z,18.96
2023-04-23T12:09:23.911Z,19.67
2023-04-23T12:11:52.036Z,19.42
2023-04-23T12:14:26.925Z,19.69
2023-04-23T12:16:54.802Z,19.74
2023-04-23T12:19:27.531Z,19.61
2023-04-23T12:21:57.108Z,19.56
2023-04-23T12:24:26.421Z,18.96
2023-04-23T12:26:55.934Z,18.04
2023-04-23T12:29:26.068Z,18.92
2023-04-23T12:31:54.852Z,18.96
2023-04-23T12:34:22.802Z,18.46
2023-04-23T12:36:51.707Z,18.28
2023-04-23T12:39:25.196Z,18.56
2023-04-23T12:41:54.356Z,19.64
2023-04-23T12:44:22.538Z,19.97
2023-04-23T12:46:59.531Z,20.09
2023-04-23T12:49:28.088Z,20.39
2023-04-23T12:52:00.758Z,20.61
2023-04-23T12:54:31.149Z,20.95
2023-04-23T12:56:59.502Z,21.22
2023-04-23T12:59:27.601Z,20.93
2023-04-23T13:01:55.631Z,22.02
2023-04-23T13:04:24.834Z,21.24
2023-04-23T13:06:52.818Z,20.51
2023-04-23T13:09:21.793Z,19.90
2023-04-23T13:11:49.867Z,20.40
2023-04-23T13:14:17.983Z,20.80
2023-04-23T13:16:46.019Z,20.53
2023-04-23T13:19:16.169Z,20.29
2023-04-23T13:21:45.451Z,20.18
2023-04-23T13:24:13.386Z,20.00
2023-04-23T13:26:41.243Z,19.90
2023-04-23T13:29:09.122Z,19.63
2023-04-23T13:31:36.967Z,19.80
2023-04-23T13:34:04.783Z,19.52
2023-04-23T13:36:32.774Z,19.37
2023-04-23T13:39:02.010Z,19.67
2023-04-23T13:41:30.157Z,19.72
2023-04-23T13:43:58.029Z,19.80
2023-04-23T13:46:26.157Z,19.81
2023-04-23T13:48:54.690Z,19.62
2023-04-23T13:51:33.990Z,19.35
2023-04-23T13:54:05.132Z,19.83
2023-04-23T13:56:33.296Z,19.45
2023-04-23T13:59:17.459Z,19.97
2023-04-23T14:01:49.622Z,19.15
2023-04-23T14:04:18.225Z,19.15
2023-04-23T14:06:46.197Z,18.54
2023-04-23T14:09:15.388Z,19.44
2023-04-23T14:11:43.179Z,19.91
2023-04-23T14:14:11.059Z,19.83
2023-04-23T14:16:38.987Z,19.66
2023-04-23T14:19:07.374Z,19.35
2023-04-23T14:21:36.378Z,19.45
2023-04-23T14:24:10.504Z,19.52
2023-04-23T14:26:48.903Z,19.45
2023-04-23T14:29:26.134Z,19.54
2023-04-23T14:31:54.130Z,19.71
2023-04-23T14:34:22.238Z,19.60
2023-04-23T14:36:50.430Z,19.77
2023-04-23T14:39:18.289Z,19.84
2023-04-23T14:41:47.448Z,19.82
2023-04-23T14:44:15.301Z,20.08
2023-04-23T14:46:43.224Z,19.99
2023-04-23T14:49:11.749Z,19.98
2023-04-23T14:51:39.671Z,19.90
2023-04-23T14:54:07.451Z,20.11
2023-04-23T14:56:35.296Z,20.15
2023-04-23T14:59:04.724Z,20.25
2023-04-23T15:01:32.717Z,20.29
2023-04-23T15:04:00.672Z,20.26
2023-04-23T15:06:28.625Z,20.13
2023-04-23T15:08:56.430Z,19.95
2023-04-23T15:11:24.285Z,19.97
2023-04-23T15:13:57.707Z,20.56
2023-04-23T15:16:46.089Z,20.95
2023-04-23T15:19:17.748Z,20.82
2023-04-23T15:21:46.085Z,20.78
2023-04-23T15:24:13.990Z,20.94
2023-04-23T15:26:41.990Z,20.63
2023-04-23T15:29:10.203Z,20.04
2023-04-23T15:31:39.778Z,20.18
2023-04-23T15:34:09.001Z,19.80
2023-04-23T15:36:38.093Z,20.43
2023-04-23T15:39:06.951Z,20.33
2023-04-23T15:41:37.492Z,20.50
2023-04-23T15:44:10.670Z,20.29
2023-04-23T15:46:39.940Z,19.95
2023-04-23T15:49:07.802Z,20.12
2023-04-23T15:51:35.583Z,19.69
2023-04-23T15:54:05.834Z,19.46
2023-04-23T15:56:33.704Z,19.19
2023-04-23T15:59:01.571Z,18.93
2023-04-23T16:01:29.467Z,19.16
2023-04-23T16:06:29.574Z,19.36
2023-04-23T16:08:57.458Z,19.75
2023-04-23T16:11:27.541Z,19.80
2023-04-23T16:13:56.907Z,19.20
2023-04-23T16:16:24.861Z,19.13
2023-04-23T16:18:53.262Z,19.17
2023-04-23T16:21:22.683Z,18.78
2023-04-23T16:23:50.496Z,18.24
2023-04-23T16:26:18.432Z,18.30
2023-04-23T16:28:51.876Z,18.44
2023-04-23T16:31:28.934Z,18.61
2023-04-23T16:33:57.327Z,18.88
2023-04-23T16:36:26.667Z,19.00
2023-04-23T16:38:54.590Z,19.16
2023-04-23T16:41:22.407Z,19.08
2023-04-23T16:43:50.224Z,19.08
2023-04-23T16:46:18.135Z,19.19
2023-04-23T16:48:46.401Z,18.87
2023-04-23T16:51:14.325Z,18.62
2023-04-23T16:53:43.550Z,18.30
2023-04-23T16:56:11.465Z,18.14
2023-04-23T16:58:39.414Z,18.01
2023-04-23T17:01:07.406Z,17.82
2023-04-23T17:03:36.561Z,17.60
2023-04-23T17:06:11.954Z,17.56
2023-04-23T17:08:40.258Z,17.44
2023-04-23T17:11:09.530Z,17.33
2023-04-23T17:13:37.444Z,17.31
2023-04-23T17:16:05.313Z,17.13
2023-04-23T17:18:33.230Z,16.99
2023-04-23T17:21:01.236Z,16.95
2023-04-23T17:23:29.079Z,17.03
2023-04-23T17:25:56.952Z,17.03
2023-04-23T17:28:26.293Z,16.97
2023-04-23T17:30:55.752Z,16.98
2023-04-23T17:33:23.859Z,16.96
2023-04-23T17:35:53.114Z,16.94
2023-04-23T17:38:21.472Z,16.93
2023-04-23T17:40:49.819Z,16.93
2023-04-23T17:43:17.831Z,16.94
2023-04-23T17:45:47.566Z,16.97
2023-04-23T17:48:16.058Z,16.87
2023-04-23T17:50:44.609Z,16.79
2023-04-23T17:53:12.696Z,16.79
2023-04-23T17:55:40.524Z,16.82
2023-04-23T17:58:09.371Z,16.83
2023-04-23T18:00:37.857Z,16.69
2023-04-23T18:03:08.612Z,16.62
2023-04-23T18:05:36.914Z,16.63
2023-04-23T18:08:06.815Z,16.63
2023-04-23T18:10:34.784Z,16.54
2023-04-23T18:13:02.942Z,16.57
2023-04-23T18:15:32.186Z,16.53
2023-04-23T18:18:00.371Z,16.41
2023-04-23T18:20:30.271Z,16.43
2023-04-23T18:22:58.488Z,16.39
2023-04-23T18:25:26.790Z,16.38
2023-04-23T18:27:54.673Z,16.37
2023-04-23T18:30:23.537Z,16.34
2023-04-23T18:32:57.112Z,16.27
2023-04-23T18:35:25.396Z,16.21
2023-04-23T18:37:56.338Z,16.16
2023-04-23T18:40:24.319Z,16.12
2023-04-23T18:42:52.352Z,16.04
2023-04-23T18:45:20.280Z,16.05
2023-04-23T18:47:51.744Z,15.98
2023-04-23T18:50:43.384Z,15.91
2023-04-23T18:53:12.719Z,15.87
2023-04-23T18:55:40.537Z,15.81
2023-04-23T18:58:08.447Z,15.80
2023-04-23T19:00:36.319Z,15.80
2023-04-23T19:03:09.126Z,15.72
2023-04-23T19:05:40.436Z,15.67
2023-04-23T19:08:08.374Z,15.61
2023-04-23T19:10:39.249Z,15.61
2023-04-23T19:13:07.267Z,15.55
2023-04-23T19:15:36.120Z,15.51
2023-04-23T19:18:06.067Z,15.44
2023-04-23T19:20:34.234Z,15.41
2023-04-23T19:23:04.765Z,15.39
2023-04-23T19:25:34.678Z,15.36
2023-04-23T19:28:03.947Z,15.31
2023-04-23T19:30:32.339Z,15.30
2023-04-23T19:33:00.331Z,15.28
2023-04-23T19:35:28.359Z,15.29
2023-04-23T19:37:56.290Z,15.24
2023-04-23T19:40:24.142Z,15.18
2023-04-23T19:42:53.232Z,15.10
2023-04-23T19:45:22.921Z,15.00
2023-04-23T19:47:50.805Z,14.94
2023-04-23T19:50:19.710Z,14.87
2023-04-23T19:52:47.597Z,14.79
2023-04-23T19:55:15.734Z,14.75
2023-04-23T19:57:43.555Z,14.74
2023-04-23T20:00:14.097Z,14.79
2023-04-23T20:02:45.950Z,14.71
2023-04-23T20:05:14.263Z,14.76
2023-04-23T20:07:42.089Z,14.76
2023-04-23T20:10:10.762Z,14.68
2023-04-23T20:12:39.670Z,14.68
2023-04-23T20:15:08.724Z,14.66
2023-04-23T20:17:36.867Z,14.61
2023-04-23T20:20:07.406Z,14.61
2023-04-23T20:22:35.319Z,14.61
2023-04-23T20:25:03.361Z,14.50
2023-04-23T20:27:34.010Z,14.48
2023-04-23T20:30:01.839Z,14.50
2023-04-23T20:32:29.843Z,14.50
2023-04-23T20:34:58.899Z,14.38
2023-04-23T20:37:28.432Z,14.33
2023-04-23T20:39:58.325Z,14.35
2023-04-23T20:42:33.084Z,14.32
2023-04-23T20:45:01.546Z,14.31
2023-04-23T20:47:29.660Z,14.24
2023-04-23T20:49:57.639Z,14.29
2023-04-23T20:52:25.510Z,14.24
2023-04-23T20:54:54.793Z,14.19
2023-04-23T20:57:22.623Z,14.18
2023-04-23T20:59:50.605Z,14.05
2023-04-23T21:02:18.537Z,14.07
2023-04-23T21:04:46.417Z,14.10
2023-04-23T21:07:14.240Z,14.07
2023-04-23T21:09:42.291Z,14.01
2023-04-23T21:12:11.789Z,13.98
2023-04-23T21:14:39.702Z,13.95
2023-04-23T21:17:07.543Z,13.97
2023-04-23T21:19:35.359Z,13.87
2023-04-23T21:22:03.542Z,13.86
2023-04-23T21:24:31.362Z,13.90
2023-04-23T21:26:59.196Z,13.83
2023-04-23T21:30:06.930Z,13.75
2023-04-23T21:32:34.795Z,13.78
2023-04-23T21:35:02.640Z,13.77
2023-04-23T21:37:31.184Z,13.72
2023-04-23T21:39:59.019Z,13.70
2023-04-23T21:42:26.860Z,13.63
2023-04-23T21:44:56.183Z,13.58
2023-04-23T21:47:24.210Z,13.67
2023-04-23T21:49:52.419Z,13.63
2023-04-23T21:52:20.501Z,13.64
2023-04-23T21:54:48.440Z,13.61
2023-04-23T21:57:16.500Z,13.58
2023-04-23T21:59:44.671Z,13.53
2023-04-23T22:02:14.151Z,13.45
2023-04-23T22:04:42.037Z,13.28
2023-04-23T22:07:12.460Z,13.26
2023-04-23T22:09:41.430Z,13.23
2023-04-23T22:12:09.656Z,13.03
2023-04-23T22:14:39.213Z,13.08
2023-04-23T22:17:07.447Z,13.06
2023-04-23T22:19:36.851Z,12.95
2023-04-23T22:22:05.925Z,12.93
2023-04-23T22:24:33.777Z,12.86
2023-04-23T22:27:01.932Z,12.89
2023-04-23T22:29:30.106Z,12.75
2023-04-23T22:31:58.050Z,12.83
2023-04-23T22:34:25.948Z,12.75
2023-04-23T22:36:55.231Z,12.67
2023-04-23T22:39:23.132Z,12.68
2023-04-23T22:41:51.072Z,12.81
2023-04-23T22:44:18.954Z,12.70
2023-04-23T22:46:46.866Z,12.64
2023-04-23T22:49:14.864Z,12.68
2023-04-23T22:51:43.731Z,12.63
2023-04-23T22:54:13.046Z,12.59
2023-04-23T22:56:41.033Z,12.72
2023-04-23T22:59:09.557Z,12.64
2023-04-23T23:01:37.445Z,12.61
2023-04-23T23:04:05.444Z,12.60
2023-04-23T23:06:33.517Z,12.60
2023-04-23T23:09:01.306Z,12.59
2023-04-23T23:11:30.598Z,12.52
2023-04-23T23:13:58.506Z,12.57
2023-04-23T23:16:26.492Z,12.49
2023-04-23T23:18:54.553Z,12.49
2023-04-23T23:21:22.464Z,12.59
2023-04-23T23:23:50.722Z,12.58
2023-04-23T23:26:18.640Z,12.47
2023-04-23T23:28:47.896Z,12.43
2023-04-23T23:31:15.752Z,12.54
2023-04-23T23:33:43.725Z,12.58
2023-04-23T23:36:11.926Z,12.48
2023-04-23T23:38:39.744Z,12.47
2023-04-23T23:41:07.600Z,12.47
2023-04-23T23:43:35.804Z,12.54
2023-04-23T23:46:05.051Z,12.46
2023-04-23T23:48:32.913Z,12.40
2023-04-23T23:51:00.828Z,12.30
2023-04-23T23:53:28.672Z,12.28
2023-04-23T23:55:56.528Z,12.28
2023-04-23T23:58:24.389Z,12.21
